Time;durP1;ratioP1;P1;durP2;ratioP2;P2;SDS_P1;SDS_P2;PMS_P1;PMS_P2;Temp;Humidity;BMP_temperature;BMP_pressure;BME280_temperature;BME280_humidity;BME280_pressure;Samples;Min_cycle;Max_cycle;Signal;HPM_P1;HPM_P2
2022/05/13 00:00:38;;;;;;;2.78;1.10;;;15.60;99.90;;;;;;5036262;28;20033;-82
2022/05/13 00:03:04;;;;;;;2.60;1.13;;;15.60;99.90;;;;;;5032586;28;20112;-83
2022/05/13 00:05:30;;;;;;;2.42;1.00;;;15.60;99.90;;;;;;5033998;28;20480;-83
2022/05/13 00:07:56;;;;;;;2.35;1.20;;;15.60;99.90;;;;;;5045206;28;20059;-83
2022/05/13 00:10:24;;;;;;;1.65;1.20;;;15.60;99.90;;;;;;5013778;28;20038;-83
2022/05/13 00:12:51;;;;;;;2.35;1.10;;;15.60;99.90;;;;;;5041874;28;20086;-82
2022/05/13 00:15:20;;;;;;;3.92;1.17;;;15.60;99.90;;;;;;5024422;28;20110;-83
2022/05/13 00:17:47;;;;;;;4.28;1.70;;;15.60;99.90;;;;;;5051962;28;20402;-83
2022/05/13 00:20:14;;;;;;;1.98;1.20;;;15.60;99.90;;;;;;5033215;28;20029;-83
2022/05/13 00:22:53;;;;;;;3.05;1.27;;;15.60;99.90;;;;;;5049690;28;20064;-83
2022/05/13 00:25:22;;;;;;;1.85;1.15;;;15.60;99.90;;;;;;5048195;28;20067;-83
2022/05/13 00:27:48;;;;;;;3.63;1.40;;;15.60;99.90;;;;;;5033910;28;20032;-83
2022/05/13 00:30:14;;;;;;;1.25;1.08;;;15.60;99.90;;;;;;5034828;28;20048;-83
2022/05/13 00:32:40;;;;;;;1.42;0.98;;;15.60;99.90;;;;;;5033493;28;20858;-82
2022/05/13 00:35:07;;;;;;;2.80;1.30;;;15.60;99.90;;;;;;5033121;28;20071;-83
2022/05/13 00:37:33;;;;;;;3.25;1.75;;;15.60;99.90;;;;;;5045500;28;20040;-83
2022/05/13 00:39:59;;;;;;;1.13;1.00;;;15.70;99.90;;;;;;5047209;28;20032;-82
2022/05/13 00:42:25;;;;;;;2.65;1.10;;;15.70;99.90;;;;;;5016270;28;20395;-83
2022/05/13 00:44:51;;;;;;;2.45;1.08;;;15.60;99.90;;;;;;5019749;28;20025;-83
2022/05/13 00:47:18;;;;;;;2.13;1.30;;;15.60;99.90;;;;;;5019882;28;20494;-83
2022/05/13 00:49:44;;;;;;;1.77;1.45;;;15.60;99.90;;;;;;5013610;28;20043;-83
2022/05/13 00:52:10;;;;;;;2.50;1.23;;;15.60;99.90;;;;;;5043504;28;20483;-82
2022/05/13 00:54:38;;;;;;;2.15;1.30;;;15.60;99.90;;;;;;5014649;28;20037;-83
2022/05/13 00:57:05;;;;;;;1.90;1.25;;;15.60;99.90;;;;;;5047892;28;20064;-82
2022/05/13 00:59:35;;;;;;;1.77;1.23;;;15.50;99.90;;;;;;5045689;28;20036;-83
2022/05/13 01:02:01;;;;;;;2.72;1.27;;;15.50;99.90;;;;;;5049371;28;20112;-82
2022/05/13 01:04:29;;;;;;;2.65;1.15;;;15.50;99.90;;;;;;5035671;28;20124;-82
2022/05/13 01:06:58;;;;;;;1.10;1.00;;;15.50;99.90;;;;;;5034577;28;20039;-83
2022/05/13 01:09:28;;;;;;;1.90;1.13;;;15.50;99.90;;;;;;5021074;28;20079;-83
2022/05/13 01:11:57;;;;;;;1.23;1.10;;;15.50;99.90;;;;;;5032181;28;20128;-82
2022/05/13 01:14:33;;;;;;;4.07;1.30;;;15.50;99.90;;;;;;5041595;28;20052;-82
2022/05/13 01:20:11;;;;;;;1.23;1.10;;;15.50;99.90;;;;;;5029899;28;20022;-83
2022/05/13 01:22:47;;;;;;;1.88;1.10;;;15.50;99.90;;;;;;5024585;28;20067;-83
2022/05/13 01:25:17;;;;;;;1.83;1.25;;;15.40;99.90;;;;;;5045089;28;20119;-83
2022/05/13 01:27:46;;;;;;;3.33;1.00;;;15.40;99.90;;;;;;5028185;28;20045;-83
2022/05/13 01:30:15;;;;;;;3.40;1.10;;;15.30;99.90;;;;;;5042744;28;20497;-83
2022/05/13 01:32:42;;;;;;;3.90;1.27;;;15.30;99.90;;;;;;5031379;28;20037;-82
2022/05/13 01:35:08;;;;;;;1.40;1.05;;;15.30;99.90;;;;;;5032345;28;20434;-83
2022/05/13 01:37:34;;;;;;;4.90;1.10;;;15.30;99.90;;;;;;5032462;28;20044;-82
2022/05/13 01:40:03;;;;;;;2.30;1.27;;;15.30;99.90;;;;;;5031462;28;20033;-83
2022/05/13 01:42:30;;;;;;;2.40;1.27;;;15.20;99.90;;;;;;5045930;28;20032;-83
2022/05/13 01:44:56;;;;;;;3.42;1.00;;;15.20;99.90;;;;;;5037893;28;20041;-83
2022/05/13 01:47:22;;;;;;;2.15;0.98;;;15.20;99.90;;;;;;5027854;28;20112;-83
2022/05/13 01:49:47;;;;;;;1.23;1.10;;;15.20;99.90;;;;;;5049631;28;20029;-84
2022/05/13 01:52:13;;;;;;;2.63;1.23;;;15.10;99.90;;;;;;5015445;28;20407;-83
2022/05/13 01:54:39;;;;;;;1.45;0.90;;;15.10;99.90;;;;;;5012550;28;20036;-83
2022/05/13 01:57:05;;;;;;;4.80;1.38;;;15.10;99.90;;;;;;5047674;28;20040;-83
2022/05/13 01:59:31;;;;;;;2.25;1.02;;;15.10;99.90;;;;;;5030788;28;20032;-82
2022/05/13 02:01:57;;;;;;;3.35;1.10;;;15.10;99.90;;;;;;5033236;28;20033;-83
2022/05/13 02:04:22;;;;;;;3.70;1.13;;;15.00;99.90;;;;;;5001825;28;20037;-84
2022/05/13 02:06:48;;;;;;;2.97;1.17;;;15.00;99.90;;;;;;5042201;28;20029;-83
2022/05/13 02:09:14;;;;;;;3.55;1.30;;;15.00;99.90;;;;;;5026359;28;20800;-83
2022/05/13 02:11:39;;;;;;;3.05;1.05;;;14.90;99.90;;;;;;5014482;28;20047;-84
2022/05/13 02:14:06;;;;;;;2.50;1.35;;;14.90;99.90;;;;;;5017639;28;20522;-83
2022/05/13 02:16:32;;;;;;;1.35;1.10;;;14.90;99.90;;;;;;5048522;28;20037;-83
2022/05/13 02:18:58;;;;;;;1.27;1.10;;;14.80;99.90;;;;;;5030360;28;20078;-85
2022/05/13 02:21:25;;;;;;;1.65;1.08;;;14.70;99.90;;;;;;5031758;28;20053;-83
2022/05/13 02:23:52;;;;;;;1.63;0.98;;;14.70;99.90;;;;;;5050742;28;20037;-83
2022/05/13 02:26:17;;;;;;;2.10;0.98;;;14.60;99.90;;;;;;5032455;28;20112;-83
2022/05/13 02:28:44;;;;;;;1.65;1.23;;;14.60;99.90;;;;;;5053736;28;20075;-83
2022/05/13 02:31:12;;;;;;;3.58;1.27;;;14.50;99.90;;;;;;5032692;28;20037;-82
2022/05/13 02:33:38;;;;;;;3.45;1.08;;;14.50;99.90;;;;;;5039956;28;20384;-83
2022/05/13 02:36:07;;;;;;;6.40;1.40;;;14.40;99.90;;;;;;5043823;28;20040;-82
2022/05/13 02:38:34;;;;;;;1.52;1.15;;;14.40;99.90;;;;;;5028178;28;20036;-82
2022/05/13 02:41:12;;;;;;;2.28;1.15;;;14.40;99.90;;;;;;5047579;28;20029;-83
2022/05/13 02:43:53;;;;;;;1.05;1.00;;;14.30;99.90;;;;;;5036460;28;20066;-83
2022/05/13 02:46:32;;;;;;;5.57;1.70;;;14.30;99.90;;;;;;5031050;28;20692;-82
2022/05/13 02:48:59;;;;;;;2.58;1.20;;;14.30;99.90;;;;;;5034823;28;20037;-83
2022/05/13 02:51:26;;;;;;;1.60;1.27;;;14.20;99.90;;;;;;5052439;28;20029;-85
2022/05/13 02:53:53;;;;;;;1.23;0.80;;;14.20;99.90;;;;;;5035465;28;20491;-83
2022/05/13 02:56:19;;;;;;;1.83;1.10;;;14.20;99.90;;;;;;5025389;28;20029;-82
2022/05/13 02:58:45;;;;;;;1.92;1.33;;;14.20;99.90;;;;;;5048121;28;20029;-83
2022/05/13 03:01:13;;;;;;;2.35;1.20;;;14.20;99.90;;;;;;5037305;28;20037;-82
2022/05/13 03:03:40;;;;;;;1.42;1.15;;;14.20;99.90;;;;;;5058369;28;20116;-82
2022/05/13 03:06:06;;;;;;;2.40;1.70;;;14.20;99.90;;;;;;5050934;28;20028;-82
2022/05/13 03:08:32;;;;;;;2.20;1.05;;;14.20;99.90;;;;;;5012613;28;20044;-82
2022/05/13 03:11:04;;;;;;;1.50;1.02;;;14.20;99.90;;;;;;5034587;28;20618;-82
2022/05/13 03:13:30;;;;;;;1.58;1.00;;;14.20;99.90;;;;;;5016406;28;20040;-83
2022/05/13 03:16:02;;;;;;;3.25;1.10;;;14.20;99.90;;;;;;5057794;28;20033;-82
2022/05/13 03:18:28;;;;;;;2.88;1.20;;;14.20;99.90;;;;;;5039835;28;20041;-83
2022/05/13 03:20:54;;;;;;;3.10;1.30;;;14.10;99.90;;;;;;5017767;28;20037;-82
2022/05/13 03:23:19;;;;;;;1.60;1.17;;;14.10;99.90;;;;;;5030654;28;20037;-82
2022/05/13 03:25:45;;;;;;;1.65;1.40;;;14.10;99.90;;;;;;5030529;28;20036;-82
2022/05/13 03:28:11;;;;;;;1.25;1.08;;;14.10;99.90;;;;;;5044552;28;20070;-82
2022/05/13 03:30:37;;;;;;;2.05;1.27;;;14.10;99.90;;;;;;5030494;28;20032;-82
2022/05/13 03:33:04;;;;;;;4.70;1.45;;;14.10;99.90;;;;;;5015023;28;20555;-83
2022/05/13 03:35:29;;;;;;;1.45;1.23;;;14.10;99.90;;;;;;5044861;28;20030;-82
2022/05/13 03:37:55;;;;;;;2.13;1.20;;;14.10;99.90;;;;;;5047968;28;20060;-82
2022/05/13 03:40:21;;;;;;;1.45;1.02;;;14.10;99.90;;;;;;5030402;28;20021;-81
2022/05/13 03:42:47;;;;;;;1.30;1.20;;;14.10;99.90;;;;;;5003091;28;20029;-82
2022/05/13 03:45:16;;;;;;;2.17;1.23;;;14.10;99.90;;;;;;5058034;28;20029;-82
2022/05/13 03:47:42;;;;;;;2.42;1.10;;;14.10;99.90;;;;;;5043558;28;20059;-82
2022/05/13 03:50:09;;;;;;;2.92;1.10;;;14.10;99.90;;;;;;5033395;28;20075;-83
2022/05/13 03:52:35;;;;;;;3.20;1.30;;;14.10;99.90;;;;;;5046351;28;20036;-82
2022/05/13 03:55:00;;;;;;;2.20;1.40;;;14.10;99.90;;;;;;5035501;28;20033;-82
2022/05/13 03:57:26;;;;;;;1.17;1.08;;;14.10;99.90;;;;;;5015733;28;20060;-82
2022/05/13 03:59:53;;;;;;;1.83;1.27;;;14.10;99.90;;;;;;5031518;28;20036;-83
2022/05/13 04:02:19;;;;;;;1.30;1.17;;;14.10;99.90;;;;;;5051251;28;20021;-83
2022/05/13 04:10:13;;;;;;;1.52;1.13;;;14.20;99.90;;;;;;5050862;28;20032;-82
2022/05/13 04:17:59;;;;;;;3.58;1.33;;;14.20;99.90;;;;;;4967297;28;20105;-87
2022/05/13 04:20:26;;;;;;;2.33;1.40;;;14.20;99.90;;;;;;4923215;28;20694;-86
2022/05/13 04:22:51;;;;;;;1.60;1.30;;;14.20;99.90;;;;;;4953711;28;20077;-88
2022/05/13 04:25:17;;;;;;;1.33;1.23;;;14.20;99.90;;;;;;4968438;28;20030;-87
2022/05/13 04:32:14;;;;;;;;;;;14.20;99.90;;;;;;4923744;29;20505;-86
2022/05/13 04:34:40;;;;;;;2.47;1.60;;;14.20;99.90;;;;;;4900236;29;19918;-87
2022/05/13 04:37:43;;;;;;;2.70;1.33;;;14.20;99.90;;;;;;4952423;28;20062;-86
2022/05/13 04:40:09;;;;;;;1.90;1.17;;;14.20;99.90;;;;;;4957758;28;20459;-87
2022/05/13 04:42:50;;;;;;;1.85;1.10;;;14.20;99.90;;;;;;4951653;28;20114;-86
2022/05/13 04:50:19;;;;;;;1.45;0.80;;;14.30;99.90;;;;;;4923578;28;20134;-86
2022/05/13 04:52:47;;;;;;;2.67;1.20;;;14.30;99.90;;;;;;4951777;29;20051;-86
2022/05/13 04:56:14;;;;;;;2.15;1.27;;;14.30;99.90;;;;;;4941839;28;20486;-87
2022/05/13 05:03:40;;;;;;;6.85;3.95;;;14.30;99.90;;;;;;4968857;28;20583;-87
2022/05/13 05:06:11;;;;;;;22.20;11.70;;;14.40;99.90;;;;;;4931278;28;20045;-84
2022/05/13 05:08:38;;;;;;;4.50;2.13;;;14.40;99.90;;;;;;4934701;28;20026;-84
2022/05/13 05:11:05;;;;;;;4.28;1.65;;;14.40;99.90;;;;;;4962575;28;20416;-85
2022/05/13 05:13:39;;;;;;;2.17;1.35;;;14.40;99.90;;;;;;4954222;28;20018;-85
2022/05/13 05:16:15;;;;;;;2.22;1.23;;;14.40;99.90;;;;;;4964959;28;20059;-84
2022/05/13 05:18:41;;;;;;;1.35;1.25;;;14.40;99.90;;;;;;4970587;28;20026;-84
2022/05/13 05:21:09;;;;;;;2.97;1.20;;;14.50;99.90;;;;;;4957678;28;20063;-84
2022/05/13 05:23:38;;;;;;;1.95;1.35;;;14.50;99.90;;;;;;4948510;28;20027;-84
2022/05/13 05:26:04;;;;;;;2.20;1.30;;;14.60;99.90;;;;;;4950598;28;20477;-86
2022/05/13 05:28:31;;;;;;;1.58;1.20;;;14.70;99.90;;;;;;4955762;28;20404;-85
2022/05/13 05:31:00;;;;;;;2.05;1.13;;;14.90;99.90;;;;;;4959217;28;20127;-85
2022/05/13 05:33:26;;;;;;;1.55;0.98;;;15.20;99.90;;;;;;4945052;28;20071;-87
2022/05/13 05:35:52;;;;;;;2.30;1.17;;;15.50;99.90;;;;;;4950844;28;20075;-86
2022/05/13 05:38:18;;;;;;;2.55;1.10;;;15.80;99.90;;;;;;4952728;28;20031;-85
2022/05/13 05:40:46;;;;;;;2.05;1.30;;;16.10;99.90;;;;;;4956155;28;20624;-85
2022/05/13 05:43:14;;;;;;;3.00;1.30;;;16.50;99.90;;;;;;4939169;28;20122;-84
2022/05/13 05:45:40;;;;;;;3.65;1.60;;;17.00;99.90;;;;;;4950688;28;20043;-86
2022/05/13 05:48:09;;;;;;;2.05;1.20;;;17.30;99.90;;;;;;4942561;28;20114;-84
2022/05/13 05:50:37;;;;;;;3.40;1.40;;;17.70;99.90;;;;;;4960589;28;20112;-85
2022/05/13 05:53:03;;;;;;;1.83;1.08;;;18.00;99.90;;;;;;4934595;29;20031;-85
2022/05/13 05:58:15;;;;;;;4.38;1.30;;;18.60;99.90;;;;;;4958579;28;20046;-85
2022/05/13 06:00:47;;;;;;;4.47;1.13;;;18.80;99.80;;;;;;4961456;28;20027;-85
2022/05/13 06:03:13;;;;;;;3.85;1.40;;;19.10;99.30;;;;;;4955130;28;20029;-86
2022/05/13 06:05:44;;;;;;;4.07;1.33;;;19.40;97.40;;;;;;4955133;28;20034;-86
2022/05/13 06:08:10;;;;;;;3.00;1.77;;;19.60;97.20;;;;;;4972451;28;20061;-85
2022/05/13 06:10:36;;;;;;;1.05;0.93;;;19.90;95.90;;;;;;4957193;28;20050;-85
2022/05/13 06:13:05;;;;;;;1.88;1.00;;;20.10;95.40;;;;;;4956863;28;20429;-85
2022/05/13 06:15:31;;;;;;;1.55;0.90;;;20.30;95.20;;;;;;4950632;28;20034;-84
2022/05/13 06:18:00;;;;;;;2.45;1.05;;;20.30;94.30;;;;;;4956810;28;20701;-84
2022/05/13 06:20:29;;;;;;;1.42;0.88;;;20.50;94.50;;;;;;4957660;28;20034;-87
2022/05/13 06:22:58;;;;;;;1.67;0.98;;;20.70;92.60;;;;;;4955500;28;20501;-86
2022/05/13 06:25:25;;;;;;;1.52;1.20;;;20.80;93.20;;;;;;4956197;28;20054;-86
2022/05/13 06:27:53;;;;;;;1.23;0.77;;;21.00;91.70;;;;;;4953149;28;20035;-88
2022/05/13 06:30:25;;;;;;;3.00;1.00;;;21.20;90.70;;;;;;4949404;28;20039;-86
2022/05/13 06:32:54;;;;;;;3.08;1.13;;;21.40;90.40;;;;;;4943199;29;20408;-87
2022/05/13 06:35:24;;;;;;;1.33;0.90;;;21.60;89.00;;;;;;4943834;28;20169;-86
2022/05/13 06:37:51;;;;;;;3.63;1.20;;;21.80;90.70;;;;;;4968301;28;20031;-87
2022/05/13 06:40:17;;;;;;;1.60;1.02;;;22.10;90.60;;;;;;4957302;28;20034;-87
2022/05/13 06:42:44;;;;;;;3.13;1.25;;;22.20;88.10;;;;;;4956209;28;20034;-85
2022/05/13 06:45:11;;;;;;;3.50;1.35;;;22.40;86.30;;;;;;4972027;28;20182;-87
2022/05/13 06:47:37;;;;;;;2.40;1.20;;;22.60;86.30;;;;;;4951453;28;20031;-87
2022/05/13 06:50:05;;;;;;;1.77;1.17;;;22.80;84.20;;;;;;4954322;28;20546;-86
2022/05/13 06:52:32;;;;;;;1.92;0.80;;;23.00;81.10;;;;;;4962219;28;20122;-87
2022/05/13 06:54:58;;;;;;;1.30;1.02;;;23.10;80.70;;;;;;4950742;28;20550;-87
2022/05/13 06:57:23;;;;;;;1.38;1.10;;;23.30;78.20;;;;;;4955476;28;20173;-87
2022/05/13 06:59:49;;;;;;;1.00;0.90;;;23.30;73.80;;;;;;4956238;28;20113;-85
2022/05/13 07:02:18;;;;;;;2.05;1.17;;;23.50;74.20;;;;;;4941319;28;20031;-85
2022/05/13 07:04:45;;;;;;;3.65;1.67;;;23.70;74.40;;;;;;4925665;28;20026;-87
2022/05/13 07:07:11;;;;;;;1.70;0.90;;;23.80;73.50;;;;;;4938093;28;20039;-87
2022/05/13 07:09:38;;;;;;;1.77;1.00;;;24.10;70.40;;;;;;4958082;28;20409;-87
2022/05/13 07:12:04;;;;;;;2.80;1.20;;;24.40;69.50;;;;;;4955166;28;20057;-87
2022/05/13 07:14:30;;;;;;;1.40;0.82;;;24.60;68.10;;;;;;4954496;28;20512;-87
2022/05/13 07:16:56;;;;;;;0.90;0.80;;;24.80;67.30;;;;;;4955146;28;20062;-88
2022/05/13 07:19:22;;;;;;;0.93;0.82;;;25.00;67.00;;;;;;4956115;28;20023;-88
2022/05/13 07:21:48;;;;;;;2.88;0.90;;;25.10;62.90;;;;;;4923869;28;20660;-86
2022/05/13 07:24:14;;;;;;;3.20;1.00;;;25.10;60.60;;;;;;4959362;28;20508;-86
2022/05/13 07:26:40;;;;;;;3.15;1.10;;;25.20;63.10;;;;;;4939931;28;20066;-86
2022/05/13 07:29:06;;;;;;;1.30;0.90;;;25.30;57.70;;;;;;4969692;28;20092;-87
2022/05/13 07:31:33;;;;;;;0.98;0.80;;;25.30;61.30;;;;;;4946289;28;20039;-86
2022/05/13 07:33:58;;;;;;;2.85;1.05;;;25.50;59.80;;;;;;4953053;28;20118;-87
2022/05/13 07:36:24;;;;;;;4.00;1.08;;;25.70;58.50;;;;;;4964186;28;20126;-86
2022/05/13 07:41:34;;;;;;;0.90;0.82;;;25.90;58.20;;;;;;4940586;28;20523;-86
2022/05/13 07:43:59;;;;;;;0.93;0.82;;;25.80;56.30;;;;;;4936141;29;20031;-87
2022/05/13 07:46:25;;;;;;;3.38;1.23;;;25.80;57.20;;;;;;4940759;28;20387;-87
2022/05/13 07:48:51;;;;;;;3.83;0.90;;;25.80;55.50;;;;;;4948553;28;20035;-87
2022/05/13 07:51:17;;;;;;;2.05;1.20;;;25.80;59.00;;;;;;4929365;29;20044;-86
2022/05/13 07:53:43;;;;;;;4.30;1.45;;;25.70;53.80;;;;;;4938191;28;20540;-87
2022/05/13 07:56:09;;;;;;;3.58;1.02;;;25.30;53.20;;;;;;4954483;28;21804;-86
2022/05/13 07:58:36;;;;;;;3.67;0.98;;;25.10;56.70;;;;;;4939372;28;20042;-86
2022/05/13 08:01:03;;;;;;;4.55;1.42;;;25.00;57.50;;;;;;4952886;28;20476;-85
2022/05/13 08:03:30;;;;;;;0.90;0.80;;;24.90;54.30;;;;;;4954331;28;20066;-84
2022/05/13 08:06:02;;;;;;;3.25;1.15;;;25.00;56.30;;;;;;4953205;28;20031;-85
2022/05/13 08:08:42;;;;;;;4.30;1.20;;;25.00;56.50;;;;;;4949984;28;20023;-85
2022/05/13 08:11:11;;;;;;;1.95;0.98;;;24.50;54.50;;;;;;4937963;28;20469;-85
2022/05/13 08:13:37;;;;;;;1.77;0.95;;;24.10;57.00;;;;;;4954143;28;20031;-85
2022/05/13 08:16:06;;;;;;;3.75;1.20;;;23.80;58.10;;;;;;4951249;28;20035;-85
2022/05/13 08:18:32;;;;;;;4.95;1.88;;;23.60;57.70;;;;;;4938052;28;20026;-85
2022/05/13 08:20:58;;;;;;;1.77;1.20;;;23.40;56.50;;;;;;4934523;29;20042;-85
2022/05/13 08:23:23;;;;;;;2.22;1.05;;;23.20;59.20;;;;;;4935293;29;20042;-85
2022/05/13 08:25:49;;;;;;;2.53;1.17;;;22.90;60.00;;;;;;4911145;28;20027;-85
2022/05/13 08:28:18;;;;;;;1.42;0.85;;;22.80;63.20;;;;;;4956469;28;20092;-85
2022/05/13 08:30:44;;;;;;;3.40;1.08;;;22.80;63.20;;;;;;4962148;28;20894;-86
2022/05/13 08:33:09;;;;;;;2.17;1.30;;;22.90;63.70;;;;;;4984170;28;20057;-85
2022/05/13 08:35:41;;;;;;;2.47;1.10;;;22.70;57.70;;;;;;4937678;28;20608;-85
2022/05/13 08:38:08;;;;;;;2.70;1.10;;;22.60;60.60;;;;;;4952350;28;20031;-85
2022/05/13 08:40:52;;;;;;;2.45;1.40;;;22.60;64.90;;;;;;4951743;28;20110;-85
2022/05/13 08:43:25;;;;;;;1.88;0.82;;;22.40;58.20;;;;;;4953977;28;20086;-87
2022/05/13 08:45:56;;;;;;;2.92;1.30;;;22.20;59.80;;;;;;4952792;28;20405;-85
2022/05/13 08:48:34;;;;;;;1.30;1.20;;;22.00;57.20;;;;;;4951741;28;20080;-86
2022/05/13 08:51:14;;;;;;;1.70;0.80;;;21.80;62.00;;;;;;4961753;28;20073;-86
2022/05/13 08:53:50;;;;;;;3.05;0.90;;;21.70;64.20;;;;;;4937116;28;20041;-85
2022/05/13 08:56:24;;;;;;;0.98;0.75;;;21.70;63.30;;;;;;4956665;28;20031;-86
2022/05/13 08:58:58;;;;;;;2.58;0.80;;;21.60;64.90;;;;;;4969064;28;20496;-86
2022/05/13 09:01:32;;;;;;;1.55;0.90;;;21.70;63.90;;;;;;4969025;28;20037;-86
2022/05/13 09:04:06;;;;;;;3.03;1.10;;;21.70;66.60;;;;;;4954712;28;20065;-84
2022/05/13 09:06:52;;;;;;;4.18;1.23;;;21.80;61.70;;;;;;4938270;29;20043;-85
2022/05/13 09:09:17;;;;;;;2.60;1.17;;;21.90;62.50;;;;;;4934951;29;20070;-84
2022/05/13 09:12:21;;;;;;;2.08;0.90;;;21.90;59.20;;;;;;4972988;28;20069;-85
2022/05/13 09:15:19;;;;;;;2.08;0.95;;;21.80;62.70;;;;;;4937917;29;20035;-85
2022/05/13 09:18:15;;;;;;;3.33;1.38;;;21.80;64.60;;;;;;4935143;29;20031;-85
2022/05/13 09:20:52;;;;;;;4.38;1.17;;;21.80;63.30;;;;;;4959292;28;20030;-86
2022/05/13 09:23:19;;;;;;;1.80;1.05;;;21.70;61.50;;;;;;4953916;28;20161;-85
2022/05/13 09:26:03;;;;;;;3.55;0.90;;;21.50;61.40;;;;;;4952636;28;20030;-86
2022/05/13 09:28:31;;;;;;;1.52;0.85;;;21.50;65.50;;;;;;4953173;28;20023;-86
2022/05/13 09:31:18;;;;;;;3.92;0.90;;;21.60;63.80;;;;;;4937722;28;20026;-89
2022/05/13 09:33:47;;;;;;;3.58;1.02;;;21.60;61.70;;;;;;4940281;28;20035;-87
2022/05/13 09:36:18;;;;;;;2.80;0.68;;;21.50;60.00;;;;;;4957759;28;20046;-86
2022/05/13 09:38:47;;;;;;;8.38;0.90;;;21.40;63.50;;;;;;4966624;28;20089;-85
2022/05/13 09:41:24;;;;;;;2.22;1.20;;;21.40;67.30;;;;;;4976774;28;20080;-85
2022/05/13 09:43:54;;;;;;;3.55;0.95;;;21.40;64.40;;;;;;4967938;28;20030;-85
2022/05/13 09:46:36;;;;;;;2.97;0.68;;;21.50;63.70;;;;;;4968482;28;20115;-85
2022/05/13 09:49:08;;;;;;;2.53;0.98;;;21.50;61.00;;;;;;4957227;28;20039;-85
2022/05/13 09:51:35;;;;;;;1.13;0.70;;;21.40;61.10;;;;;;4970008;28;20038;-85
2022/05/13 09:54:20;;;;;;;4.55;0.90;;;21.40;64.20;;;;;;4958029;28;20031;-85
2022/05/13 09:56:52;;;;;;;4.03;0.95;;;21.30;59.50;;;;;;4962864;28;20041;-84
2022/05/13 09:59:23;;;;;;;4.22;0.85;;;21.30;61.70;;;;;;4993629;28;20026;-86
2022/05/13 10:01:50;;;;;;;5.38;1.95;;;21.30;60.00;;;;;;4945647;28;20090;-86
2022/05/13 10:04:27;;;;;;;3.00;0.73;;;21.30;63.20;;;;;;4960966;28;20038;-86
2022/05/13 10:07:08;;;;;;;1.17;0.90;;;21.40;62.40;;;;;;4970272;28;20063;-85
2022/05/13 10:15:47;;;;;;;2.95;0.90;;;21.70;62.40;;;;;;4973911;28;20121;-85
2022/05/13 10:18:27;;;;;;;4.15;0.90;;;21.90;61.90;;;;;;4974719;22;20085;-83
2022/05/13 10:21:00;;;;;;;4.43;1.00;;;21.90;60.60;;;;;;5004399;28;20034;-84
2022/05/13 10:23:47;;;;;;;2.08;0.93;;;22.00;60.00;;;;;;4979318;28;20100;-84
2022/05/13 10:26:19;;;;;;;1.15;0.93;;;22.00;60.90;;;;;;4998445;28;20372;-84
2022/05/13 10:29:18;;;;;;;1.25;0.80;;;22.00;59.70;;;;;;4979667;28;20395;-83
2022/05/13 10:31:45;;;;;;;3.38;0.85;;;22.00;59.80;;;;;;4975832;28;20035;-82
2022/05/13 10:34:35;;;;;;;4.05;0.75;;;21.90;59.00;;;;;;4976992;28;20034;-85
2022/05/13 10:37:08;;;;;;;1.95;0.80;;;21.80;61.10;;;;;;4978193;28;20509;-83
2022/05/13 10:39:33;;;;;;;2.92;0.80;;;21.70;62.50;;;;;;4961355;28;20022;-84
2022/05/13 10:42:05;;;;;;;3.13;0.80;;;21.70;61.80;;;;;;4974699;28;20113;-84
2022/05/13 10:45:07;;;;;;;1.60;0.90;;;21.60;59.40;;;;;;4982804;28;20122;-87
2022/05/13 10:47:54;;;;;;;0.82;0.60;;;21.60;61.80;;;;;;4977141;28;20066;-85
2022/05/13 10:50:26;;;;;;;2.35;0.70;;;21.70;60.50;;;;;;4989258;28;20168;-84
2022/05/13 10:53:23;;;;;;;3.80;1.00;;;21.60;58.50;;;;;;5000900;28;20042;-84
2022/05/13 10:56:11;;;;;;;0.90;0.60;;;21.70;60.30;;;;;;4970013;28;20031;-86
2022/05/13 10:59:32;;;;;;;2.22;0.90;;;21.70;61.50;;;;;;4964352;28;20514;-87
2022/05/13 11:02:31;;;;;;;4.38;1.45;;;21.70;59.30;;;;;;4970123;28;20120;-84
2022/05/13 11:05:00;;;;;;;1.52;0.85;;;21.70;60.10;;;;;;4974876;28;20064;-88
2022/05/13 11:07:51;;;;;;;1.70;1.00;;;21.70;58.80;;;;;;4966654;28;20641;-86
2022/05/13 11:10:28;;;;;;;2.35;0.80;;;21.80;57.40;;;;;;4967076;28;20038;-87
2022/05/13 11:13:24;;;;;;;0.80;0.57;;;21.80;57.70;;;;;;4972353;28;20066;-86
2022/05/13 11:15:56;;;;;;;2.35;0.80;;;22.00;59.40;;;;;;4976063;28;20057;-83
2022/05/13 11:18:27;;;;;;;6.20;1.45;;;22.10;58.40;;;;;;4976737;28;20040;-86
2022/05/13 11:21:32;;;;;;;3.50;0.90;;;22.10;59.80;;;;;;4961206;28;20034;-85
2022/05/13 11:27:25;;;;;;;2.10;0.90;;;22.30;58.00;;;;;;4970946;28;20705;-85
2022/05/13 11:30:08;;;;;;;6.93;0.82;;;22.30;56.60;;;;;;4962925;28;20034;-88
2022/05/13 11:32:50;;;;;;;4.68;1.10;;;22.20;57.90;;;;;;4969683;28;20104;-85
2022/05/13 11:35:38;;;;;;;3.90;0.80;;;22.20;56.40;;;;;;4985832;28;20049;-85
2022/05/13 11:38:19;;;;;;;1.83;0.77;;;22.20;59.90;;;;;;4995789;28;20099;-86
2022/05/13 11:41:03;;;;;;;1.83;0.90;;;22.30;58.60;;;;;;4976971;28;20034;-82
2022/05/13 11:44:00;;;;;;;0.80;0.68;;;22.50;59.00;;;;;;4980752;28;20041;-84
2022/05/13 11:46:44;;;;;;;0.55;0.40;;;22.70;56.80;;;;;;4964356;28;20113;-86
2022/05/13 11:49:25;;;;;;;2.85;1.38;;;22.80;56.30;;;;;;4979324;28;20025;-88
2022/05/13 11:51:52;;;;;;;2.45;0.82;;;22.80;55.10;;;;;;4983017;28;20030;-85
2022/05/13 11:54:23;;;;;;;1.42;0.65;;;22.90;58.40;;;;;;4965598;28;20066;-87
2022/05/13 11:57:10;;;;;;;4.32;1.48;;;23.10;59.20;;;;;;4962106;28;20111;-87
2022/05/13 11:59:48;;;;;;;2.80;0.70;;;23.40;54.70;;;;;;4953715;28;20385;-85
2022/05/13 12:02:46;;;;;;;4.20;1.10;;;23.30;53.70;;;;;;4960452;28;20088;-84
2022/05/13 12:05:18;;;;;;;1.58;0.70;;;23.30;54.50;;;;;;4997221;28;20039;-82
2022/05/13 12:08:12;;;;;;;1.38;0.70;;;23.20;55.00;;;;;;4990721;28;20431;-82
2022/05/13 12:11:25;;;;;;;1.33;0.68;;;23.20;54.20;;;;;;4994855;28;20608;-85
2022/05/13 12:14:04;;;;;;;2.65;0.60;;;23.20;53.30;;;;;;4971945;28;20054;-84
2022/05/13 12:16:36;;;;;;;3.50;0.80;;;23.30;57.10;;;;;;4980466;28;20547;-85
2022/05/13 12:19:35;;;;;;;0.70;0.50;;;23.40;56.00;;;;;;4962823;28;20034;-87
2022/05/13 12:22:12;;;;;;;1.17;0.70;;;23.40;56.20;;;;;;4947672;28;20053;-84
2022/05/13 12:25:05;;;;;;;2.03;0.70;;;23.60;56.60;;;;;;4948641;28;20082;-85
2022/05/13 12:27:36;;;;;;;2.03;0.52;;;23.70;56.60;;;;;;4976589;28;20084;-85
2022/05/13 12:30:29;;;;;;;2.08;0.98;;;23.70;50.00;;;;;;4994867;28;20031;-88
2022/05/13 12:32:55;;;;;;;1.50;0.90;;;23.90;54.70;;;;;;4983858;28;20036;-84
2022/05/13 12:38:16;;;;;;;2.38;0.68;;;24.20;53.50;;;;;;4984709;28;20037;-85
2022/05/13 12:41:10;;;;;;;1.63;0.70;;;24.40;53.00;;;;;;4949506;28;20035;-88
2022/05/13 12:44:06;;;;;;;4.35;0.70;;;24.70;53.50;;;;;;4946303;28;20034;-83
2022/05/13 12:46:49;;;;;;;;;;;24.80;52.70;;;;;;4978964;28;20041;-87
2022/05/13 12:49:25;;;;;;;1.55;0.70;;;25.00;52.60;;;;;;4988393;28;20243;-87
2022/05/13 12:52:06;;;;;;;1.42;0.55;;;25.00;52.60;;;;;;4982876;28;20089;-85
2022/05/13 12:54:38;;;;;;;1.70;0.73;;;25.20;51.90;;;;;;4989686;28;20027;-85
2022/05/13 12:57:14;;;;;;;0.60;0.50;;;25.30;46.90;;;;;;4973103;28;20030;-85
2022/05/13 12:59:44;;;;;;;2.85;0.65;;;25.20;47.70;;;;;;4963088;28;20053;-84
2022/05/13 13:02:11;;;;;;;1.27;0.60;;;25.10;48.90;;;;;;4991027;28;20026;-82
2022/05/13 13:04:53;;;;;;;1.75;0.60;;;24.90;48.10;;;;;;4965877;28;20038;-83
2022/05/13 13:07:21;;;;;;;3.75;0.68;;;24.90;49.90;;;;;;4978121;28;20099;-83
2022/05/13 13:09:52;;;;;;;2.38;0.82;;;24.80;49.00;;;;;;4944817;28;20033;-82
2022/05/13 13:12:38;;;;;;;0.65;0.65;;;24.90;49.60;;;;;;4986132;28;20092;-84
2022/05/13 13:15:13;;;;;;;3.20;0.90;;;24.70;48.70;;;;;;4969385;28;20038;-84
2022/05/13 13:17:44;;;;;;;2.15;0.70;;;24.80;48.30;;;;;;4987229;28;20056;-82
2022/05/13 13:20:14;;;;;;;2.95;0.85;;;24.80;46.60;;;;;;4960716;28;20066;-82
2022/05/13 13:22:47;;;;;;;1.17;0.50;;;24.80;49.40;;;;;;4981405;28;20038;-83
2022/05/13 13:25:28;;;;;;;3.03;0.90;;;24.70;48.20;;;;;;4982093;28;20026;-84
2022/05/13 13:28:04;;;;;;;1.58;0.70;;;24.70;47.90;;;;;;4954586;28;20026;-82
2022/05/13 13:30:32;;;;;;;1.63;0.82;;;24.70;50.20;;;;;;4958838;28;20041;-83
2022/05/13 13:32:58;;;;;;;4.35;0.80;;;24.50;50.90;;;;;;4985330;28;20029;-84
2022/05/13 13:35:44;;;;;;;1.63;0.60;;;24.50;50.40;;;;;;4936699;28;20569;-82
2022/05/13 13:38:16;;;;;;;2.05;0.80;;;24.50;49.70;;;;;;4968317;28;20027;-83
2022/05/13 13:40:45;;;;;;;0.85;0.60;;;24.50;50.90;;;;;;4954642;28;20029;-82
2022/05/13 13:43:21;;;;;;;1.50;0.80;;;24.50;50.80;;;;;;4966112;28;20085;-85
2022/05/13 13:45:58;;;;;;;2.47;0.88;;;24.50;49.50;;;;;;4951195;28;20073;-82
2022/05/13 13:48:40;;;;;;;2.20;1.17;;;24.50;48.70;;;;;;4949486;28;20092;-82
2022/05/13 13:51:14;;;;;;;2.33;0.60;;;24.50;50.40;;;;;;4956678;28;20032;-83
2022/05/13 13:53:41;;;;;;;2.17;0.63;;;24.50;51.00;;;;;;4985174;28;20557;-83
2022/05/13 13:56:17;;;;;;;1.63;0.60;;;24.40;49.60;;;;;;4976547;28;20029;-82
2022/05/13 13:58:57;;;;;;;0.65;0.55;;;24.30;50.30;;;;;;4968355;28;20388;-82